Pearisburg, Virginia
Current Conditions -  °F | °C
As of 1:55 AM on Sunday 26 Oct 2014 (Local Time) from KPSK Reporting Station
Scattered Clouds Scattered Clouds  
Wind Chill: 61°   Ceiling: Unl
Heat Index: 61°   Visibility: 10mi
Dew Point: 54°   Wind: 8mph
Humidity: 77%   Direction: 270°W
Pressure: 29.9"   Gusts: NA
Location:  37.33°N, 80.74°W
Report Text: KPSK 260555Z AUTO 27007KT 10SM SCT030 SCT035 16/12 A2990 RMK AO2
Loading
Personal Weather Stations






























Interactive Weather Map
Tropical Storm Tracking
New forecast layout! Learn more

10-Day Weather Forecast

Advertisements
Track Severe Weather on mobile